Thunder radar more information blitzortung!


avis per Pluja more information rain snow radar


Visita la nostra xarxa de llocs de meteo:

Template documentation
and downloads

And another site



Rain From: 18-10-2018 10:00 Until: 16:59 warning for: Rain Level: Yellow info button

Pagina Historial Weather Underground text

Diari Resum Abril 10, 2016 Unitats:  Mètric    Imperial   Tant
« Previous Dia
SegĂźent Dia »
Diari Setmana Mensual Anual Personalitzada
  Maxima: Minima: Media:
Temperatura: -17.8 °C -13.4 °C -9.3 °C
Punt de rosada: -17.8 °C -15.7 °C -13.8 °C
Humitat: Humidity % 49 % 59 %
Wind Speed: 0 km/h 0 km/h 13.7 km/h
RĂ fegues de vent: 0 km/h - -
Vent:- - South
Pression baro: 0 hPa 34097 hPa -
Precipitacions: 0 mm    
Historical Graphs
 
 
Dades de taula per Abril 10, 2016
Temps Temperatura Punt de rosada Pression baro Vent Wind Speed RĂ fegues de vent Humitat Rainfall Rate (Hourly)
-17.8 °C -17.8 °C 0 hPa Calm     Humidity % 0 mm
03:15 -13.4 °C -15.7 °C 34198.6 hPa NE 7.7 km/h 7.7 km/h 75 % 0 mm
03:25 -13.2 °C -15.7 °C 34198.6 hPa NE 5.1 km/h 10.3 km/h 74 % 0 mm
03:35 -13.1 °C -15.7 °C 34198.6 hPa ENE 7.7 km/h 10.3 km/h 73 % 0 mm
03:45 -12.9 °C -15.6 °C 34198.6 hPa NE 2.6 km/h 7.7 km/h 72 % 0 mm
03:55 -12.7 °C -15.4 °C 34164.7 hPa NE 7.7 km/h 12.9 km/h 71 % 0 mm
04:05 -12.3 °C -15.1 °C 34198.6 hPa NE 5.1 km/h 10.3 km/h 71 % 0 mm
04:15 -12.1 °C -14.9 °C 34198.6 hPa NE 2.6 km/h 7.7 km/h 70 % 0 mm
04:25 -11.9 °C -14.9 °C 34164.7 hPa NE 2.6 km/h 10.3 km/h 69 % 0 mm
04:35 -11.9 °C -15.1 °C 34198.6 hPa NE 5.1 km/h 7.7 km/h 68 % 0 mm
04:45 -11.8 °C -14.9 °C 34198.6 hPa NE 7.7 km/h 7.7 km/h 68 % 0 mm
04:55 -11.5 °C -14.7 °C 34198.6 hPa NE 5.1 km/h 7.7 km/h 68 % 0 mm
05:05 -11.3 °C -14.6 °C 34198.6 hPa NE 2.6 km/h 5.1 km/h 67 % 0 mm
05:15 -11.2 °C -14.5 °C 34198.6 hPa NE 7.7 km/h 7.7 km/h 67 % 0 mm
10:27 -10.6 °C -13.8 °C 34198.6 hPa East 9 km/h 9 km/h 68 % 0 mm
10:32 -10.4 °C -13.5 °C 34198.6 hPa SW 6 km/h 10.3 km/h 69 % 0 mm
10:37 -10.4 °C -13.5 °C 34198.6 hPa SE 3.1 km/h 9.3 km/h 69 % 0 mm
10:43 -10.3 °C -13.4 °C 34198.6 hPa SW 6 km/h 6 km/h 69 % 0 mm
10:48 -10.3 °C -13.4 °C 34198.6 hPa ESE 10.3 km/h 10.3 km/h 69 % 0 mm
10:53 -10.2 °C -13.4 °C 34198.6 hPa South 11.9 km/h 11.9 km/h 68 % 0 mm
10:58 -10.1 °C -13.2 °C 34198.6 hPa ESE 11.9 km/h 11.9 km/h 69 % 0 mm
11:03 -10.1 °C -13.2 °C 34198.6 hPa ENE 6.3 km/h 6.8 km/h 69 % 0 mm
11:08 -10.1 °C -13.2 °C 34198.6 hPa East 7.6 km/h 7.6 km/h 69 % 0 mm
11:13 -9.8 °C -13 °C 34198.6 hPa East 6 km/h 6.3 km/h 68 % 0 mm
11:18 -9.7 °C -12.9 °C 34198.6 hPa ESE 11.9 km/h 11.9 km/h 68 % 0 mm
11:23 -9.5 °C -12.7 °C 34198.6 hPa WSW 11.9 km/h 11.9 km/h 68 % 0 mm
11:28 -9.4 °C -12.7 °C 34198.6 hPa WSW 9 km/h 9 km/h 68 % 0 mm
11:33 -9.3 °C -12.7 °C 34198.6 hPa NNE 6 km/h 6.3 km/h 67 % 0 mm
11:38 -9.2 °C -12.6 °C 34198.6 hPa SW 11.9 km/h 11.9 km/h 67 % 0 mm
11:43 -9.1 °C -12.6 °C 34198.6 hPa WSW 9 km/h 9 km/h 66 % 0 mm
11:48 -9 °C -12.6 °C 34198.6 hPa ESE 3.1 km/h 3.7 km/h 66 % 0 mm
11:53 -9 °C -12.6 °C 34198.6 hPa ESE 11.9 km/h 11.9 km/h 66 % 0 mm
11:58 -9.1 °C -12.6 °C 34198.6 hPa East 10.3 km/h 10.3 km/h 66 % 0 mm
12:03 -8.9 °C -12.4 °C 34198.6 hPa SW 6 km/h 6 km/h 66 % 0 mm
12:08 -8.8 °C -12.5 °C 34198.6 hPa North 9 km/h 9 km/h 65 % 0 mm
12:13 -8.7 °C -12.4 °C 34198.6 hPa South 15 km/h 15 km/h 65 % 0 mm
12:18 -8.4 °C -12.2 °C 34198.6 hPa WSW 11.9 km/h 11.9 km/h 64 % 0 mm
12:23 -8.3 °C -12.3 °C 34198.6 hPa West 15 km/h 15 km/h 63 % 0 mm
12:28 -8.2 °C -12.3 °C 34198.6 hPa SW 17.9 km/h 17.9 km/h 62 % 0 mm
12:33 -7.9 °C -12.1 °C 34198.6 hPa SW 5.1 km/h 5.1 km/h 62 % 0 mm
12:38 -7.9 °C -12.1 °C 34198.6 hPa ENE 11.9 km/h 11.9 km/h 61 % 0 mm
12:43 -7.8 °C -12 °C 34198.6 hPa WSW 15 km/h 15 km/h 61 % 0 mm
12:48 -7.6 °C -12 °C 34164.7 hPa SSE 15 km/h 15 km/h 60 % 0 mm
12:53 -7.3 °C -11.9 °C 34164.7 hPa SW 9 km/h 9 km/h 59 % 0 mm
12:58 -7.4 °C -12.3 °C 34164.7 hPa WSW 20.9 km/h 20.9 km/h 57 % 0 mm
13:08 -6.8 °C -11.8 °C 34164.7 hPa West 9.8 km/h 9.8 km/h 56 % 0 mm
13:13 -7.3 °C -12.6 °C 34164.7 hPa SSW 26.9 km/h 26.9 km/h 54 % 0 mm
13:18 -7.3 °C -12.4 °C 34164.7 hPa SW 23.8 km/h 23.8 km/h 55 % 0 mm
13:23 -7.3 °C -12.4 °C 34164.7 hPa WNW 20.9 km/h 20.9 km/h 55 % 0 mm
13:28 -7.4 °C -12.6 °C 34164.7 hPa SW 23.8 km/h 23.8 km/h 55 % 0 mm
13:33 -7.3 °C -12.6 °C 34130.9 hPa WSW 26.9 km/h 26.9 km/h 54 % 0 mm
13:38 -7.2 °C -12.7 °C 34130.9 hPa SW 26.9 km/h 26.9 km/h 53 % 0 mm
13:48 -7.2 °C -12.6 °C 34097 hPa SW 32.8 km/h 32.8 km/h 53 % 0 mm
13:53 -7.2 °C -12.6 °C 34097 hPa WSW 32.8 km/h 32.8 km/h 53 % 0 mm
13:58 -7.3 °C -12.6 °C 34097 hPa East 20.9 km/h 20.9 km/h 54 % 0 mm
14:03 -7.1 °C -12.6 °C 34130.9 hPa WSW 11.9 km/h 11.9 km/h 53 % 0 mm
14:08 -7.1 °C -12.5 °C 34130.9 hPa SW 9 km/h 10.3 km/h 53 % 0 mm
14:13 -6.9 °C -12.6 °C 34130.9 hPa SSW 38.8 km/h 38.8 km/h 52 % 0 mm
14:18 -7.2 °C -12.7 °C 34130.9 hPa WSW 36.2 km/h 36.2 km/h 53 % 0 mm
14:23 -7.3 °C -12.8 °C 34130.9 hPa SW 26.9 km/h 26.9 km/h 53 % 50.8 mm
14:28 -7.3 °C -12.6 °C 34130.9 hPa WSW 26.9 km/h 26.9 km/h 54 % 109.22 mm
14:33 -7.1 °C -12.7 °C 34130.9 hPa SSW 35.7 km/h 35.7 km/h 52 % 109.22 mm
14:38 -7.3 °C -12.7 °C 34130.9 hPa SSW 29.8 km/h 29.8 km/h 53 % 109.22 mm
14:43 -7.2 °C -12.6 °C 34130.9 hPa WSW 26.9 km/h 26.9 km/h 53 % 0 mm
14:48 -7.1 °C -12.7 °C 34130.9 hPa SW 29.8 km/h 29.8 km/h 52 % 0 mm
14:53 -7.2 °C -12.8 °C 34130.9 hPa SW 20.9 km/h 20.9 km/h 52 % 104.14 mm
14:58 -6.9 °C -12.7 °C 34130.9 hPa South 23.8 km/h 23.8 km/h 51 % 104.14 mm
15:03 -7 °C -12.8 °C 34164.7 hPa SSE 16.6 km/h 16.6 km/h 51 % 0 mm
15:08 -6.8 °C -12.6 °C 34164.7 hPa WSW 23.8 km/h 23.8 km/h 51 % 0 mm
15:13 -6.9 °C -12.8 °C 34164.7 hPa WSW 20.9 km/h 20.9 km/h 50 % 0 mm
15:18 -6.6 °C -12.6 °C 34130.9 hPa South 11.9 km/h 11.9 km/h 50 % 0 mm
15:23 -6.7 °C -12.6 °C 34130.9 hPa South 17.9 km/h 17.9 km/h 50 % 160.02 mm
15:28 -6.7 °C -12.7 °C 34130.9 hPa WSW 15 km/h 15 km/h 50 % 104.14 mm
15:33 -6.8 °C -12.9 °C 34130.9 hPa SW 35.7 km/h 35.7 km/h 49 % 104.14 mm
15:38 -6.9 °C -13.1 °C 34130.9 hPa West 29.8 km/h 29.8 km/h 49 % 104.14 mm
15:43 -7.2 °C -13.3 °C 34130.9 hPa SW 32.8 km/h 32.8 km/h 49 % 0 mm
15:48 -7 °C -12.9 °C 34130.9 hPa West 23.8 km/h 23.8 km/h 50 % 0 mm
15:53 -6.8 °C -12.7 °C 34130.9 hPa SW 15 km/h 15 km/h 50 % 104.14 mm
15:58 -6.9 °C -12.8 °C 34130.9 hPa South 17.9 km/h 17.9 km/h 50 % 0 mm
16:03 -7 °C -12.9 °C 34130.9 hPa SW 41.7 km/h 41.7 km/h 50 % 0 mm
16:08 -7.2 °C -13.3 °C 34130.9 hPa SW 20.9 km/h 20.9 km/h 49 % 0 mm
16:13 -7.2 °C -13.2 °C 34130.9 hPa SW 26.9 km/h 26.9 km/h 50 % 0 mm
16:18 -7.3 °C -13 °C 34130.9 hPa SSW 15.6 km/h 16.6 km/h 51 % 0 mm
16:23 -7.5 °C -13.1 °C 34130.9 hPa SW 26.9 km/h 26.9 km/h 52 % 0 mm
16:28 -7.4 °C -13 °C 34130.9 hPa WSW 29.8 km/h 29.8 km/h 52 % 0 mm
16:33 -7.4 °C -13 °C 34097 hPa SSW 29.8 km/h 29.8 km/h 52 % 0 mm
16:38 -7.6 °C -13.2 °C 34097 hPa SW 32.8 km/h 32.8 km/h 52 % 0 mm
16:43 -7.4 °C -13 °C 34097 hPa SSW 26.9 km/h 26.9 km/h 52 % 0 mm
16:48 -7.6 °C -13.5 °C 34130.9 hPa SSW 32.8 km/h 32.8 km/h 50 % 0 mm
16:53 -7.6 °C -13.3 °C 34130.9 hPa WSW 29.8 km/h 30.6 km/h 51 % 0 mm
17:03 -7.6 °C -13.3 °C 34130.9 hPa WSW 20.9 km/h 20.9 km/h 51 % 0 mm
17:08 -7.7 °C -13.4 °C 34130.9 hPa SSW 20.9 km/h 20.9 km/h 51 % 0 mm
17:13 -7.6 °C -13.3 °C 34130.9 hPa ESE 20.9 km/h 20.9 km/h 51 % 0 mm
17:18 -7.4 °C -13.2 °C 34130.9 hPa SW 23.8 km/h 23.8 km/h 51 % 0 mm
17:23 -7.4 °C -13.2 °C 34130.9 hPa SSW 15 km/h 15 km/h 51 % 0 mm
17:28 -7.4 °C -13.2 °C 34130.9 hPa SSW 17.9 km/h 17.9 km/h 51 % 0 mm
17:33 -7.6 °C -13.3 °C 34130.9 hPa SW 26.9 km/h 26.9 km/h 51 % 0 mm
17:38 -7.6 °C -13.3 °C 34130.9 hPa SSW 29.8 km/h 29.8 km/h 51 % 0 mm
17:43 -7.5 °C -13.2 °C 34130.9 hPa SSW 26.9 km/h 26.9 km/h 51 % 0 mm
17:48 -7.5 °C -13.4 °C 34130.9 hPa WSW 31.4 km/h 31.4 km/h 50 % 0 mm
17:53 -7.5 °C -13.4 °C 34130.9 hPa SW 41.7 km/h 41.7 km/h 50 % 0 mm
17:58 -7.5 °C -13.4 °C 34130.9 hPa SW 35.7 km/h 35.7 km/h 50 % 0 mm
18:03 -7.9 °C -13.7 °C 34130.9 hPa SSW 29.8 km/h 29.8 km/h 51 % 0 mm
18:08 -7.9 °C -13.5 °C 34130.9 hPa SSW 20.9 km/h 20.9 km/h 52 % 0 mm
18:13 -7.9 °C -13.4 °C 34130.9 hPa West 14.5 km/h 14.5 km/h 52 % 0 mm
18:23 -8 °C -13.8 °C 34130.9 hPa WSW 23.8 km/h 23.8 km/h 50 % 0 mm
18:28 -8.1 °C -13.8 °C 34130.9 hPa SW 23.8 km/h 23.8 km/h 51 % 0 mm
18:33 -8.2 °C -13.8 °C 34097 hPa WSW 23.8 km/h 23.8 km/h 51 % 0 mm
18:38 -8.2 °C -13.8 °C 34097 hPa WSW 17.9 km/h 17.9 km/h 51 % 0 mm
18:43 -8.2 °C -13.8 °C 34097 hPa SW 6 km/h 14 km/h 51 % 0 mm
18:48 -8.1 °C -13.8 °C 34130.9 hPa South 23.8 km/h 23.8 km/h 51 % 0 mm
18:53 -8.1 °C -13.8 °C 34130.9 hPa SSW 17.9 km/h 17.9 km/h 51 % 0 mm
18:58 -8.1 °C -13.8 °C 34130.9 hPa SSW 17.9 km/h 17.9 km/h 51 % 0 mm
19:03 -8.1 °C -13.8 °C 34130.9 hPa WSW 29.8 km/h 29.8 km/h 51 % 0 mm
19:08 -8.6 °C -14.2 °C 34130.9 hPa SSW 23.8 km/h 23.8 km/h 51 % 0 mm
19:10 -11.1 °C -14.6 °C 34198.6 hPa Calm   2.6 km/h 66 % 0 mm
19:13 -8.8 °C -14.3 °C 34130.9 hPa SW 23.8 km/h 23.8 km/h 52 % 0 mm
19:18 -8.9 °C -14.3 °C 34130.9 hPa SW 15 km/h 15 km/h 52 % 0 mm
19:20 -11.2 °C -14.6 °C 34164.7 hPa NNW 2.6 km/h 2.6 km/h 66 % 0 mm
19:23 -8.9 °C -14.2 °C 34130.9 hPa SW 17.9 km/h 17.9 km/h 53 % 0 mm
19:28 -8.9 °C -14.2 °C 34130.9 hPa SSW 11.9 km/h 11.9 km/h 53 % 0 mm
19:30 -11.1 °C -14.5 °C 34164.7 hPa WNW 2.6 km/h 5.1 km/h 66 % 0 mm
19:33 -8.9 °C -14.2 °C 34097 hPa SSW 11.9 km/h 11.9 km/h 53 % 0 mm
19:40 -11 °C -14.2 °C 34198.6 hPa North 2.6 km/h 5.1 km/h 68 % 0 mm
19:48 -9.2 °C -14.2 °C 34097 hPa WNW 9 km/h 9 km/h 55 % 0 mm
19:50 -10.9 °C -14.1 °C 34164.7 hPa NE 2.6 km/h 7.7 km/h 68 % 0 mm
19:53 -9.3 °C -14.1 °C 34097 hPa WNW 9 km/h 9 km/h 56 % 0 mm
19:58 -9.4 °C -14.4 °C 34097 hPa South 9 km/h 9 km/h 55 % 0 mm
20:00 -10.9 °C -14.1 °C 34164.7 hPa NE 5.1 km/h 5.1 km/h 68 % 0 mm
20:03 -9.4 °C -14.6 °C 34130.9 hPa SSW 15 km/h 15 km/h 54 % 0 mm
20:08 -9.5 °C -14.8 °C 34130.9 hPa SW 14 km/h 14 km/h 53 % 0 mm
20:10 -10.9 °C -14.1 °C 34198.6 hPa Calm     68 % 0 mm
20:13 -9.6 °C -14.8 °C 34130.9 hPa SW 20.9 km/h 20.9 km/h 53 % 0 mm
20:18 -9.7 °C -15.1 °C 34130.9 hPa SSW 15 km/h 15 km/h 52 % 0 mm
20:20 -10.9 °C -14.1 °C 34164.7 hPa NNE 2.6 km/h 5.1 km/h 68 % 0 mm
20:28 -9.8 °C -15.1 °C 34130.9 hPa SW 15 km/h 15 km/h 53 % 0 mm
20:30 -10.9 °C -13.9 °C 34164.7 hPa Calm   2.6 km/h 69 % 0 mm
20:33 -9.9 °C -15.2 °C 34130.9 hPa SSW 15 km/h 15 km/h 53 % 0 mm
20:38 -9.9 °C -15.2 °C 34130.9 hPa SSW 9 km/h 9 km/h 53 % 0 mm
20:40 -11 °C -14.1 °C 34164.7 hPa NE 2.6 km/h 7.7 km/h 69 % 0 mm
20:43 -10 °C -15.2 °C 34130.9 hPa SSW 15 km/h 15 km/h 53 % 0 mm
20:48 -10 °C -15.2 °C 34130.9 hPa WSW 15 km/h 15 km/h 53 % 0 mm
20:50 -11.2 °C -14.3 °C 34130.9 hPa NE 2.6 km/h 5.1 km/h 68 % 0 mm
20:53 -10 °C -15.1 °C 34130.9 hPa SW 9 km/h 9 km/h 54 % 0 mm
20:58 -10.1 °C -15.2 °C 34130.9 hPa SW 9 km/h 9 km/h 54 % 0 mm
21:00 -11.4 °C -14.3 °C 34130.9 hPa Calm   5.1 km/h 70 % 0 mm
21:03 -10.1 °C -15.2 °C 34130.9 hPa West 11.9 km/h 11.9 km/h 54 % 0 mm
21:08 -10.2 °C -15.3 °C 34130.9 hPa WSW 9 km/h 9 km/h 54 % 0 mm
21:10 -11.4 °C -14.3 °C 34164.7 hPa WSW 5.1 km/h 5.1 km/h 70 % 0 mm
21:13 -10.3 °C -15.3 °C 34130.9 hPa SW 6 km/h 6 km/h 54 % 0 mm
21:18 -10.3 °C -15.4 °C 34130.9 hPa WSW 9 km/h 9 km/h 54 % 0 mm
21:20 -11.3 °C -14.2 °C 34198.6 hPa NE 2.6 km/h 5.1 km/h 71 % 0 mm
21:23 -10.3 °C -15.2 °C 34130.9 hPa SSW 11.9 km/h 11.9 km/h 55 % 0 mm
21:28 -10.3 °C -15.2 °C 34130.9 hPa SW 15 km/h 15 km/h 55 % 0 mm
21:30 -11.3 °C -14.1 °C 34198.6 hPa NE 2.6 km/h 5.1 km/h 71 % 0 mm
21:33 -10.3 °C -15.2 °C 34130.9 hPa WSW 15 km/h 15 km/h 55 % 0 mm
21:38 -10.3 °C -15.1 °C 34130.9 hPa SW 11.9 km/h 11.9 km/h 56 % 0 mm
21:40 -11.3 °C -14.1 °C 34198.6 hPa ENE 2.6 km/h 5.1 km/h 71 % 0 mm
21:43 -10.3 °C -14.9 °C 34130.9 hPa WSW 9 km/h 9 km/h 57 % 0 mm
21:48 -10.3 °C -14.9 °C 34130.9 hPa WSW 15 km/h 15 km/h 57 % 0 mm
21:50 -11.3 °C -14.2 °C 34164.7 hPa ENE 5.1 km/h 7.7 km/h 71 % 0 mm
21:53 -10.4 °C -14.9 °C 34130.9 hPa WSW 9.3 km/h 9.3 km/h 58 % 0 mm
21:58 -10.4 °C -14.9 °C 34130.9 hPa SW 15 km/h 15 km/h 58 % 0 mm
22:00 -11.4 °C -14.2 °C 34164.7 hPa ENE 5.1 km/h 5.1 km/h 71 % 0 mm
22:03 -10.4 °C -14.7 °C 34164.7 hPa WSW 9 km/h 9 km/h 60 % 0 mm
22:08 -10.4 °C -14.7 °C 34164.7 hPa SW 9 km/h 9 km/h 60 % 0 mm
22:10 -11.4 °C -14.1 °C 34198.6 hPa ENE 5.1 km/h 7.7 km/h 72 % 0 mm
22:13 -10.5 °C -14.7 °C 34164.7 hPa WSW 9 km/h 9 km/h 60 % 0 mm
22:20 -11.5 °C -14.3 °C 34198.6 hPa ESE 2.6 km/h 5.1 km/h 71 % 0 mm
22:23 -10.5 °C -14.7 °C 34164.7 hPa SW 6 km/h 6.3 km/h 60 % 0 mm
22:30 -11.6 °C -14.3 °C 34198.6 hPa Calm   7.7 km/h 72 % 0 mm
22:33 -10.6 °C -14.7 °C 34198.6 hPa West 5.1 km/h 5.1 km/h 61 % 0 mm
22:40 -11.4 °C -14.1 °C 34198.6 hPa West 2.6 km/h 5.1 km/h 73 % 0 mm
22:43 -10.6 °C -14.7 °C 34198.6 hPa WSW 5.1 km/h   61 % 0 mm
22:48 -10.6 °C -14.7 °C 34198.6 hPa Calm     61 % 0 mm
22:50 -11.4 °C -14 °C 34198.6 hPa Calm     73 % 0 mm
22:53 -10.7 °C -14.7 °C 34198.6 hPa ENE 3.7 km/h 3.7 km/h 62 % 0 mm
22:58 -10.7 °C -14.7 °C 34198.6 hPa ENE 4.2 km/h 4.2 km/h 62 % 0 mm
23:00 -11.3 °C -13.9 °C 34198.6 hPa NE 5.1 km/h 7.7 km/h 73 % 0 mm
23:03 -10.7 °C -14.7 °C 34164.7 hPa ENE 3.1 km/h 3.1 km/h 62 % 0 mm
23:08 -10.7 °C -14.7 °C 34164.7 hPa Calm     62 % 0 mm
23:10 -11.3 °C -13.9 °C 34198.6 hPa Calm   7.7 km/h 73 % 0 mm
23:13 -10.7 °C -14.7 °C 34164.7 hPa NNE 6 km/h 6 km/h 62 % 0 mm
23:18 -10.7 °C -14.7 °C 34164.7 hPa ENE 6 km/h 6 km/h 62 % 0 mm
23:20 -11.4 °C -13.9 °C 34198.6 hPa ESE 5.1 km/h 7.7 km/h 74 % 0 mm
23:23 -10.7 °C -14.7 °C 34164.7 hPa NE 7.6 km/h 7.6 km/h 62 % 0 mm
23:28 -10.7 °C -14.7 °C 34164.7 hPa NNE 6 km/h 6 km/h 62 % 0 mm
23:30 -11.6 °C -14 °C 34198.6 hPa South 2.6 km/h 7.7 km/h 75 % 0 mm
23:33 -10.7 °C -14.7 °C 34164.7 hPa NE 6 km/h 6 km/h 62 % 0 mm
23:38 -11.1 °C -14.9 °C 34164.7 hPa ENE 9 km/h 9 km/h 63 % 0 mm
23:40 -11.6 °C -13.9 °C 34198.6 hPa Calm   5.1 km/h 76 % 0 mm
23:43 -11.1 °C -14.8 °C 34164.7 hPa ENE 6 km/h 6 km/h 64 % 0 mm
23:48 -11.1 °C -14.8 °C 34164.7 hPa NE 6 km/h 6 km/h 64 % 0 mm
23:50 -11.6 °C -13.7 °C 34222.3 hPa NW 2.6 km/h 7.7 km/h 78 % 0 mm
23:53 -11.1 °C -14.6 °C 34164.7 hPa NE 6.3 km/h 6.3 km/h 65 % 0 mm
23:58 -11.1 °C -14.5 °C 34164.7 hPa NNE 3.1 km/h   66 % 0 mm
Meteo Sesrovires
Elogis d' Weather Underground - 1.5 mb

Guio original per  Jim McMurry - jmcmurry@mwt.net Adaptat per a la plantilla per  Wim van der Kuil - Leuven-Template.eu

Trobareu la nostra informacio del temps tambe a:

Weather Underground

AWEKAS